sensor_id;sensor_type;location;lat;lon;timestamp;pressure;altitude;pressure_sealevel;temperature;humidity
38253;BME280;24785;52.372;20.672;2022-07-06T00:04:49;100823.81;;;15.72;100.00
38253;BME280;24785;52.372;20.672;2022-07-06T00:14:49;100793.00;;;15.73;100.00
38253;BME280;24785;52.372;20.672;2022-07-06T00:24:50;100777.50;;;15.79;100.00
38253;BME280;24785;52.372;20.672;2022-07-06T00:34:51;100783.59;;;15.98;100.00
38253;BME280;24785;52.372;20.672;2022-07-06T00:44:52;100806.41;;;15.92;100.00
38253;BME280;24785;52.372;20.672;2022-07-06T00:54:52;100795.31;;;15.93;100.00
38253;BME280;24785;52.372;20.672;2022-07-06T01:04:54;100789.28;;;15.69;100.00
38253;BME280;24785;52.372;20.672;2022-07-06T01:14:55;100748.06;;;15.63;100.00
38253;BME280;24785;52.372;20.672;2022-07-06T01:24:56;100736.00;;;15.56;100.00
38253;BME280;24785;52.372;20.672;2022-07-06T01:34:57;100728.28;;;15.49;100.00
38253;BME280;24785;52.372;20.672;2022-07-06T01:44:58;100713.88;;;15.40;100.00
38253;BME280;24785;52.372;20.672;2022-07-06T01:54:58;100722.09;;;15.49;100.00
38253;BME280;24785;52.372;20.672;2022-07-06T02:04:59;100718.78;;;15.52;100.00
38253;BME280;24785;52.372;20.672;2022-07-06T02:15:00;100701.09;;;15.46;100.00
38253;BME280;24785;52.372;20.672;2022-07-06T02:25:01;100716.78;;;15.43;100.00
38253;BME280;24785;52.372;20.672;2022-07-06T02:35:01;100725.47;;;15.27;100.00
38253;BME280;24785;52.372;20.672;2022-07-06T02:45:02;100732.31;;;15.52;100.00
38253;BME280;24785;52.372;20.672;2022-07-06T02:55:04;100729.69;;;15.33;100.00
38253;BME280;24785;52.372;20.672;2022-07-06T03:05:05;100728.88;;;15.32;100.00
38253;BME280;24785;52.372;20.672;2022-07-06T03:15:06;100709.97;;;15.19;100.00
38253;BME280;24785;52.372;20.672;2022-07-06T03:25:10;100712.50;;;15.42;100.00
38253;BME280;24785;52.372;20.672;2022-07-06T03:35:10;100717.09;;;15.56;100.00
38253;BME280;24785;52.372;20.672;2022-07-06T03:45:11;100717.88;;;15.42;100.00
38253;BME280;24785;52.372;20.672;2022-07-06T03:55:12;100733.38;;;15.23;100.00
38253;BME280;24785;52.372;20.672;2022-07-06T04:05:13;100745.41;;;15.44;100.00
38253;BME280;24785;52.372;20.672;2022-07-06T04:15:13;100760.78;;;15.63;100.00
38253;BME280;24785;52.372;20.672;2022-07-06T04:25:14;100771.31;;;15.46;100.00
38253;BME280;24785;52.372;20.672;2022-07-06T04:35:15;100772.75;;;15.24;100.00
38253;BME280;24785;52.372;20.672;2022-07-06T04:45:16;100787.00;;;15.11;100.00
38253;BME280;24785;52.372;20.672;2022-07-06T04:55:17;100786.19;;;15.10;100.00
38253;BME280;24785;52.372;20.672;2022-07-06T05:05:18;100791.09;;;15.41;100.00
38253;BME280;24785;52.372;20.672;2022-07-06T05:15:18;100806.25;;;16.16;100.00
38253;BME280;24785;52.372;20.672;2022-07-06T05:25:19;100823.91;;;17.13;100.00
38253;BME280;24785;52.372;20.672;2022-07-06T05:35:20;100819.84;;;17.24;100.00
38253;BME280;24785;52.372;20.672;2022-07-06T05:45:21;100834.06;;;17.52;100.00
38253;BME280;24785;52.372;20.672;2022-07-06T05:55:23;100840.56;;;17.28;95.26
38253;BME280;24785;52.372;20.672;2022-07-06T06:05:24;100840.00;;;17.62;94.80
38253;BME280;24785;52.372;20.672;2022-07-06T06:15:25;100848.22;;;17.71;94.68
38253;BME280;24785;52.372;20.672;2022-07-06T06:25:37;100846.66;;;17.56;88.59
38253;BME280;24785;52.372;20.672;2022-07-06T06:35:42;100859.44;;;17.87;89.10
38253;BME280;24785;52.372;20.672;2022-07-06T06:45:43;100858.03;;;17.89;88.50
38253;BME280;24785;52.372;20.672;2022-07-06T06:55:46;100856.06;;;18.12;84.69
38253;BME280;24785;52.372;20.672;2022-07-06T07:05:47;100852.28;;;18.31;87.01
38253;BME280;24785;52.372;20.672;2022-07-06T07:15:49;100842.56;;;18.38;85.88
38253;BME280;24785;52.372;20.672;2022-07-06T07:25:50;100849.03;;;18.60;83.74
38253;BME280;24785;52.372;20.672;2022-07-06T07:35:51;100857.88;;;18.82;81.68
38253;BME280;24785;52.372;20.672;2022-07-06T07:45:52;100864.41;;;19.33;72.97
38253;BME280;24785;52.372;20.672;2022-07-06T07:55:53;100858.53;;;19.57;69.51
38253;BME280;24785;52.372;20.672;2022-07-06T08:05:54;100855.63;;;19.45;64.56
38253;BME280;24785;52.372;20.672;2022-07-06T08:15:54;100853.50;;;19.76;65.95
38253;BME280;24785;52.372;20.672;2022-07-06T08:25:55;100830.72;;;19.98;59.87
38253;BME280;24785;52.372;20.672;2022-07-06T08:35:56;100825.28;;;20.28;58.57
38253;BME280;24785;52.372;20.672;2022-07-06T08:45:57;100826.19;;;20.70;53.07
38253;BME280;24785;52.372;20.672;2022-07-06T08:56:00;100831.56;;;20.99;53.70
38253;BME280;24785;52.372;20.672;2022-07-06T09:06:02;100835.44;;;20.98;51.97
38253;BME280;24785;52.372;20.672;2022-07-06T09:16:11;100819.63;;;21.46;48.44
38253;BME280;24785;52.372;20.672;2022-07-06T09:26:12;100815.69;;;21.67;49.29
38253;BME280;24785;52.372;20.672;2022-07-06T09:36:13;100822.06;;;21.26;50.08
38253;BME280;24785;52.372;20.672;2022-07-06T09:46:14;100810.06;;;21.40;47.25
38253;BME280;24785;52.372;20.672;2022-07-06T09:56:17;100806.16;;;21.74;47.96
38253;BME280;24785;52.372;20.672;2022-07-06T10:06:18;100805.16;;;22.03;46.71
38253;BME280;24785;52.372;20.672;2022-07-06T10:16:21;100808.13;;;21.97;44.69
38253;BME280;24785;52.372;20.672;2022-07-06T10:26:23;100812.13;;;22.37;44.28
38253;BME280;24785;52.372;20.672;2022-07-06T10:36:24;100814.84;;;22.49;45.83
38253;BME280;24785;52.372;20.672;2022-07-06T10:46:28;100820.53;;;22.44;45.45
38253;BME280;24785;52.372;20.672;2022-07-06T10:56:50;100831.66;;;21.90;46.45
38253;BME280;24785;52.372;20.672;2022-07-06T11:06:52;100813.91;;;22.57;43.89
38253;BME280;24785;52.372;20.672;2022-07-06T11:26:55;100809.31;;;21.63;43.40
38253;BME280;24785;52.372;20.672;2022-07-06T11:36:56;100811.81;;;22.90;42.57
38253;BME280;24785;52.372;20.672;2022-07-06T11:46:57;100821.66;;;21.82;45.82
38253;BME280;24785;52.372;20.672;2022-07-06T11:57:02;100802.97;;;22.57;45.56
38253;BME280;24785;52.372;20.672;2022-07-06T12:07:07;100795.78;;;23.33;43.78
38253;BME280;24785;52.372;20.672;2022-07-06T12:17:13;100788.69;;;23.60;39.86
38253;BME280;24785;52.372;20.672;2022-07-06T12:27:19;100819.38;;;21.84;46.68
38253;BME280;24785;52.372;20.672;2022-07-06T12:37:20;100822.25;;;21.54;48.05
38253;BME280;24785;52.372;20.672;2022-07-06T12:47:23;100812.03;;;23.13;45.40
38253;BME280;24785;52.372;20.672;2022-07-06T12:57:25;100809.25;;;22.98;46.12
38253;BME280;24785;52.372;20.672;2022-07-06T13:07:27;100816.69;;;23.25;44.32
38253;BME280;24785;52.372;20.672;2022-07-06T13:17:28;100819.25;;;23.34;45.49
38253;BME280;24785;52.372;20.672;2022-07-06T13:27:29;100837.56;;;22.65;45.35
38253;BME280;24785;52.372;20.672;2022-07-06T13:37:30;100838.63;;;22.36;45.95
38253;BME280;24785;52.372;20.672;2022-07-06T13:47:31;100834.63;;;22.21;45.39
38253;BME280;24785;52.372;20.672;2022-07-06T13:57:32;100852.97;;;21.63;46.26
38253;BME280;24785;52.372;20.672;2022-07-06T14:07:33;100856.38;;;20.86;46.96
38253;BME280;24785;52.372;20.672;2022-07-06T14:17:34;100851.94;;;20.52;48.94
38253;BME280;24785;52.372;20.672;2022-07-06T14:27:35;100850.53;;;20.46;49.10
38253;BME280;24785;52.372;20.672;2022-07-06T14:37:35;100860.19;;;20.34;50.23
38253;BME280;24785;52.372;20.672;2022-07-06T14:47:36;100877.13;;;20.31;53.46
38253;BME280;24785;52.372;20.672;2022-07-06T14:57:37;100901.19;;;19.31;57.42
38253;BME280;24785;52.372;20.672;2022-07-06T15:07:38;100901.94;;;18.71;60.00
38253;BME280;24785;52.372;20.672;2022-07-06T15:17:39;100902.56;;;18.28;62.81
38253;BME280;24785;52.372;20.672;2022-07-06T15:27:40;100896.50;;;18.31;65.23
38253;BME280;24785;52.372;20.672;2022-07-06T15:37:41;100888.31;;;18.14;66.90
38253;BME280;24785;52.372;20.672;2022-07-06T15:47:42;100885.94;;;18.21;66.83
38253;BME280;24785;52.372;20.672;2022-07-06T15:57:43;100876.97;;;18.12;68.15
38253;BME280;24785;52.372;20.672;2022-07-06T16:07:44;100875.25;;;17.93;69.65
38253;BME280;24785;52.372;20.672;2022-07-06T16:17:47;100870.16;;;17.92;70.37
38253;BME280;24785;52.372;20.672;2022-07-06T16:27:48;100868.63;;;18.00;70.21
38253;BME280;24785;52.372;20.672;2022-07-06T16:37:50;100877.91;;;18.07;69.83
38253;BME280;24785;52.372;20.672;2022-07-06T16:47:50;100878.22;;;18.06;69.89
38253;BME280;24785;52.372;20.672;2022-07-06T16:57:51;100874.41;;;18.07;70.33
38253;BME280;24785;52.372;20.672;2022-07-06T17:07:52;100865.50;;;18.15;70.37
38253;BME280;24785;52.372;20.672;2022-07-06T17:17:53;100861.47;;;18.04;70.48
38253;BME280;24785;52.372;20.672;2022-07-06T17:27:54;100863.38;;;18.03;71.73
38253;BME280;24785;52.372;20.672;2022-07-06T17:37:55;100871.94;;;17.97;71.85
38253;BME280;24785;52.372;20.672;2022-07-06T17:47:56;100873.03;;;17.96;71.48
38253;BME280;24785;52.372;20.672;2022-07-06T17:57:56;100873.03;;;17.96;71.14
38253;BME280;24785;52.372;20.672;2022-07-06T18:07:58;100875.59;;;17.92;70.95
38253;BME280;24785;52.372;20.672;2022-07-06T18:17:59;100881.28;;;17.82;71.51
38253;BME280;24785;52.372;20.672;2022-07-06T18:27:59;100873.03;;;17.65;72.82
38253;BME280;24785;52.372;20.672;2022-07-06T18:38:00;100873.94;;;17.15;75.12
38253;BME280;24785;52.372;20.672;2022-07-06T18:48:01;100870.50;;;16.46;81.85
38253;BME280;24785;52.372;20.672;2022-07-06T18:58:02;100887.47;;;15.78;90.56
38253;BME280;24785;52.372;20.672;2022-07-06T19:08:03;100874.75;;;15.08;98.80
38253;BME280;24785;52.372;20.672;2022-07-06T19:18:04;100889.72;;;14.58;100.00
38253;BME280;24785;52.372;20.672;2022-07-06T19:28:05;100892.84;;;14.17;100.00
38253;BME280;24785;52.372;20.672;2022-07-06T19:38:06;100902.38;;;13.81;100.00
38253;BME280;24785;52.372;20.672;2022-07-06T19:48:07;100898.09;;;13.46;100.00
38253;BME280;24785;52.372;20.672;2022-07-06T19:58:09;100908.75;;;13.17;100.00
38253;BME280;24785;52.372;20.672;2022-07-06T20:08:10;100899.19;;;12.96;100.00
38253;BME280;24785;52.372;20.672;2022-07-06T20:18:11;100899.91;;;12.52;100.00
38253;BME280;24785;52.372;20.672;2022-07-06T20:28:12;100891.41;;;12.19;100.00
38253;BME280;24785;52.372;20.672;2022-07-06T20:38:13;100905.88;;;12.34;100.00
38253;BME280;24785;52.372;20.672;2022-07-06T20:48:13;100904.16;;;12.63;100.00
38253;BME280;24785;52.372;20.672;2022-07-06T20:58:14;100914.81;;;12.88;100.00
38253;BME280;24785;52.372;20.672;2022-07-06T21:08:15;100903.59;;;12.66;100.00
38253;BME280;24785;52.372;20.672;2022-07-06T21:18:16;100903.13;;;12.54;100.00
38253;BME280;24785;52.372;20.672;2022-07-06T21:28:17;100915.28;;;12.26;100.00
38253;BME280;24785;52.372;20.672;2022-07-06T21:38:19;100907.56;;;11.99;100.00
38253;BME280;24785;52.372;20.672;2022-07-06T21:48:19;100910.44;;;12.28;100.00
38253;BME280;24785;52.372;20.672;2022-07-06T21:58:20;100921.91;;;12.59;100.00
38253;BME280;24785;52.372;20.672;2022-07-06T22:08:21;100942.41;;;12.45;100.00
38253;BME280;24785;52.372;20.672;2022-07-06T22:18:22;100945.97;;;11.94;100.00
38253;BME280;24785;52.372;20.672;2022-07-06T22:28:23;100944.03;;;11.54;100.00
38253;BME280;24785;52.372;20.672;2022-07-06T22:38:24;100954.44;;;11.20;100.00
38253;BME280;24785;52.372;20.672;2022-07-06T22:48:25;100947.94;;;11.01;100.00
38253;BME280;24785;52.372;20.672;2022-07-06T22:58:26;100937.72;;;10.93;100.00
38253;BME280;24785;52.372;20.672;2022-07-06T23:08:27;100944.97;;;10.92;100.00
38253;BME280;24785;52.372;20.672;2022-07-06T23:18:27;100945.00;;;11.02;100.00
38253;BME280;24785;52.372;20.672;2022-07-06T23:28:28;100939.91;;;11.06;100.00
38253;BME280;24785;52.372;20.672;2022-07-06T23:38:29;100932.97;;;11.15;100.00
38253;BME280;24785;52.372;20.672;2022-07-06T23:48:30;100928.41;;;11.26;100.00
38253;BME280;24785;52.372;20.672;2022-07-06T23:58:31;100923.03;;;11.16;100.00
